17CO weather

Skylane Ranch Airport
Berthoud, Colorado, United States

Public forecast

Using degrees Fahrenheit for public forecast. Weather courtesy of forecast.io.

Closest aviation weather report (METAR) to Skylane Ranch Airport

Closest report is Vance Brand Airport, 8.8 nm (16.4 km) SW. Retrieved 2020/02/26 20:15 UTC (9 minutes ago):

KLMO 262015Z AUTO 05003KT 10SM CLR 05/M11 A3021 RMK AO2 T00461106

Closest aviation forecast (TAF) to Skylane Ranch Airport

Closest forecast is Rocky Mountain Metropolitan Airport, 22.2 nm (41.0 km) S. Retrieved 2020/02/26 18:36 UTC (2 hours ago):

TAF KBJC 261734Z 2618/2718 VRB03KT P6SM FEW130 FEW200 FM261900 29010KT P6SM SCT130 FM262300 26018G26KT P6SM SCT130 FM270700 26005KT P6SM SCT130 FM271600 02010KT P6SM FEW100